createdAt,value
2023-04-12T00:01:41.986Z,11.10
2023-04-12T00:04:16.939Z,10.70
2023-04-12T00:06:58.211Z,11.30
2023-04-12T00:09:30.990Z,10.70
2023-04-12T00:12:02.232Z,11.20
2023-04-12T00:14:40.572Z,10.40
2023-04-12T00:17:10.806Z,12.90
2023-04-12T00:19:45.339Z,10.90
2023-04-12T00:22:22.491Z,12.30
2023-04-12T00:24:57.769Z,11.10
2023-04-12T00:27:28.017Z,13.50
2023-04-12T00:29:58.392Z,10.80
2023-04-12T00:32:29.323Z,12.00
2023-04-12T00:35:00.925Z,12.70
2023-04-12T00:37:34.909Z,13.30
2023-04-12T00:40:08.449Z,10.40
2023-04-12T00:42:38.412Z,9.20
2023-04-12T00:45:08.609Z,10.70
2023-04-12T00:47:43.616Z,13.40
2023-04-12T00:50:13.221Z,9.10
2023-04-12T00:52:45.814Z,12.40
2023-04-12T00:55:16.789Z,15.30
2023-04-12T00:57:46.947Z,11.40
2023-04-12T01:00:17.616Z,13.20
2023-04-12T01:02:50.558Z,10.80
2023-04-12T01:05:23.703Z,9.00
2023-04-12T01:08:15.843Z,9.70
2023-04-12T01:11:39.723Z,9.90
2023-04-12T01:14:23.246Z,11.10
2023-04-12T01:16:58.861Z,9.10
2023-04-12T01:19:34.321Z,10.20
2023-04-12T01:23:01.023Z,10.60
2023-04-12T01:25:48.204Z,8.90
2023-04-12T01:28:29.370Z,10.00
2023-04-12T01:31:01.554Z,15.30
2023-04-12T01:33:32.415Z,11.30
2023-04-12T01:36:07.911Z,12.80
2023-04-12T01:38:37.815Z,9.40
2023-04-12T01:41:11.371Z,12.70
2023-04-12T01:43:43.088Z,12.10
2023-04-12T01:46:23.262Z,10.80
2023-04-12T01:48:54.915Z,12.40
2023-04-12T01:51:58.626Z,10.50
2023-04-12T01:54:38.657Z,13.10
2023-04-12T01:57:11.651Z,12.20
2023-04-12T01:59:43.759Z,12.30
2023-04-12T02:02:14.114Z,11.30
2023-04-12T02:04:44.619Z,12.20
2023-04-12T02:07:19.078Z,13.20
2023-04-12T02:09:48.290Z,13.50
2023-04-12T02:12:23.809Z,13.10
2023-04-12T02:14:53.007Z,12.50
2023-04-12T02:17:22.723Z,11.60
2023-04-12T02:19:51.903Z,12.90
2023-04-12T02:22:21.979Z,14.70
2023-04-12T02:24:55.479Z,15.90
2023-04-12T02:27:25.681Z,13.70
2023-04-12T02:30:00.223Z,18.70
2023-04-12T02:32:33.369Z,14.20
2023-04-12T02:35:05.544Z,16.10
2023-04-12T02:37:35.932Z,18.80
2023-04-12T02:40:11.164Z,19.00
2023-04-12T02:42:45.776Z,13.60
2023-04-12T02:45:19.614Z,10.40
2023-04-12T02:47:50.102Z,11.70
2023-04-12T02:50:21.012Z,9.80
2023-04-12T02:53:02.366Z,11.90
2023-04-12T02:55:39.319Z,14.60
2023-04-12T02:58:14.766Z,14.50
2023-04-12T03:00:50.650Z,12.80
2023-04-12T03:03:25.241Z,13.70
2023-04-12T03:06:00.331Z,11.50
2023-04-12T03:08:30.308Z,14.70
2023-04-12T03:11:01.141Z,11.20
2023-04-12T03:13:31.990Z,15.50
2023-04-12T03:16:25.168Z,13.00
2023-04-12T03:19:01.501Z,13.10
2023-04-12T03:21:33.869Z,9.80
2023-04-12T03:24:07.578Z,11.80
2023-04-12T03:26:38.535Z,13.10
2023-04-12T03:29:19.462Z,11.60
2023-04-12T03:31:51.188Z,13.90
2023-04-12T03:34:21.278Z,15.50
2023-04-12T03:36:59.652Z,21.60
2023-04-12T03:39:48.339Z,12.00
2023-04-12T03:42:32.916Z,11.00
2023-04-12T03:45:14.481Z,14.90
2023-04-12T03:47:52.157Z,13.50
2023-04-12T03:50:24.097Z,12.90
2023-04-12T03:52:58.723Z,12.40
2023-04-12T03:55:35.971Z,15.20
2023-04-12T03:58:19.223Z,14.80
2023-04-12T04:00:58.400Z,13.70
2023-04-12T04:03:30.137Z,14.80
2023-04-12T04:06:11.467Z,13.60
2023-04-12T04:08:44.651Z,15.50
2023-04-12T04:11:18.579Z,22.10
2023-04-12T04:13:56.077Z,12.90
2023-04-12T04:16:25.896Z,16.30
2023-04-12T04:18:58.528Z,14.70
2023-04-12T04:21:30.692Z,15.00
2023-04-12T04:24:01.545Z,14.50
2023-04-12T04:26:33.735Z,14.50
2023-04-12T04:29:18.889Z,12.10
2023-04-12T04:31:48.664Z,13.30
2023-04-12T04:34:19.321Z,12.00
2023-04-12T04:36:52.627Z,13.00
2023-04-12T04:39:27.573Z,15.80
2023-04-12T04:42:00.863Z,12.90
2023-04-12T04:44:37.428Z,15.90
2023-04-12T04:47:12.021Z,11.40
2023-04-12T04:49:46.035Z,13.20
2023-04-12T04:52:35.649Z,15.00
2023-04-12T04:55:26.155Z,14.20
2023-04-12T04:58:02.891Z,16.70
2023-04-12T05:00:36.644Z,14.20
2023-04-12T05:03:09.450Z,14.70
2023-04-12T05:05:48.189Z,15.90
2023-04-12T05:08:21.646Z,13.90
2023-04-12T05:10:53.955Z,13.50
2023-04-12T05:13:29.994Z,13.60
2023-04-12T05:16:08.561Z,16.80
2023-04-12T05:18:40.295Z,13.70
2023-04-12T05:21:13.092Z,24.20
2023-04-12T05:23:50.845Z,24.50
2023-04-12T05:26:26.246Z,23.20
2023-04-12T05:29:01.391Z,16.80
2023-04-12T05:31:35.737Z,15.40
2023-04-12T05:34:10.727Z,15.30
2023-04-12T05:36:44.948Z,15.30
2023-04-12T05:39:24.771Z,19.90
2023-04-12T05:42:00.448Z,20.80
2023-04-12T05:44:30.115Z,17.20
2023-04-12T05:46:59.801Z,17.20
2023-04-12T05:49:31.516Z,16.60
2023-04-12T05:52:04.908Z,17.40
2023-04-12T05:54:35.372Z,16.10
2023-04-12T05:57:05.204Z,17.00
2023-04-12T05:59:35.332Z,17.30
2023-04-12T06:02:04.997Z,15.60
2023-04-12T06:04:49.300Z,19.10
2023-04-12T06:07:21.446Z,15.10
2023-04-12T06:09:51.025Z,17.80
2023-04-12T06:12:21.138Z,16.20
2023-04-12T06:14:50.518Z,16.50
2023-04-12T06:17:19.806Z,16.60
2023-04-12T06:19:49.119Z,16.10
2023-04-12T06:22:18.475Z,15.20
2023-04-12T06:24:47.830Z,14.20
2023-04-12T06:27:17.739Z,15.70
2023-04-12T06:29:47.212Z,13.70
2023-04-12T06:32:16.546Z,15.40
2023-04-12T06:34:45.840Z,18.60
2023-04-12T06:37:17.305Z,18.90
2023-04-12T06:39:46.515Z,15.60
2023-04-12T06:42:16.153Z,15.00
2023-04-12T06:44:45.388Z,15.20
2023-04-12T06:47:14.680Z,14.00
2023-04-12T06:49:43.962Z,14.40
2023-04-12T06:52:13.126Z,12.90
2023-04-12T06:54:42.753Z,14.60
2023-04-12T06:57:11.923Z,15.20
2023-04-12T06:59:41.429Z,16.00
2023-04-12T07:02:11.073Z,17.30
2023-04-12T07:04:40.799Z,15.20
2023-04-12T07:07:10.815Z,19.40
2023-04-12T07:09:40.432Z,18.60
2023-04-12T07:12:09.505Z,16.50
2023-04-12T07:14:38.796Z,14.50
2023-04-12T07:17:07.989Z,16.20
2023-04-12T07:19:37.354Z,18.20
2023-04-12T07:22:06.523Z,14.70
2023-04-12T07:24:35.848Z,14.00
2023-04-12T07:27:05.088Z,16.20
2023-04-12T07:29:34.514Z,18.80
2023-04-12T07:32:05.057Z,16.00
2023-04-12T07:34:34.477Z,14.70
2023-04-12T07:37:04.211Z,14.50
2023-04-12T07:39:35.233Z,16.70
2023-04-12T07:42:04.802Z,14.10
2023-04-12T07:44:37.099Z,11.60
2023-04-12T07:47:07.747Z,10.60
2023-04-12T07:49:36.787Z,7.70
2023-04-12T07:52:05.822Z,11.20
2023-04-12T07:54:35.066Z,12.00
2023-04-12T07:57:04.330Z,11.70
2023-04-12T07:59:34.317Z,148.30
2023-04-12T08:02:03.994Z,13.70
2023-04-12T08:04:33.562Z,10.80
2023-04-12T08:07:06.004Z,13.30
2023-04-12T08:09:35.054Z,14.00
2023-04-12T08:12:04.608Z,10.80
2023-04-12T08:14:33.816Z,10.50
2023-04-12T08:17:03.185Z,10.60
2023-04-12T08:19:32.451Z,11.00
2023-04-12T08:22:02.198Z,10.40
2023-04-12T08:24:31.494Z,39.20
2023-04-12T08:27:02.572Z,11.70
2023-04-12T08:29:31.853Z,24.60
2023-04-12T08:32:01.740Z,13.40
2023-04-12T08:34:30.874Z,40.90
2023-04-12T08:37:01.417Z,16.00
2023-04-12T08:39:33.115Z,10.30
2023-04-12T08:42:05.069Z,8.90
2023-04-12T08:47:11.894Z,12.70
2023-04-12T08:49:41.375Z,7.50
2023-04-12T08:52:11.449Z,8.30
2023-04-12T08:54:41.766Z,9.80
2023-04-12T08:57:13.007Z,8.10
2023-04-12T08:59:45.831Z,8.20
2023-04-12T09:02:15.575Z,7.80
2023-04-12T09:04:50.802Z,8.10
2023-04-12T09:07:23.638Z,8.10
2023-04-12T09:09:52.974Z,8.30
2023-04-12T09:12:24.423Z,5.60
2023-04-12T09:15:13.095Z,5.50
2023-04-12T09:17:43.314Z,10.00
2023-04-12T09:20:12.728Z,7.50
2023-04-12T09:22:46.706Z,5.80
2023-04-12T09:25:16.839Z,6.10
2023-04-12T09:27:51.855Z,5.20
2023-04-12T09:30:21.289Z,8.80
2023-04-12T09:32:50.832Z,14.80
2023-04-12T09:35:33.845Z,14.00
2023-04-12T09:38:11.177Z,7.50
2023-04-12T09:40:40.931Z,4.50
2023-04-12T09:43:11.381Z,5.70
2023-04-12T09:45:40.606Z,5.80
2023-04-12T09:48:21.548Z,6.30
2023-04-12T09:50:59.066Z,7.20
2023-04-12T09:53:41.335Z,5.80
2023-04-12T09:56:12.643Z,5.70
2023-04-12T09:58:43.246Z,5.80
2023-04-12T10:01:14.609Z,6.00
2023-04-12T10:03:44.941Z,7.30
2023-04-12T10:06:15.590Z,8.60
2023-04-12T10:08:46.324Z,5.20
2023-04-12T10:11:15.869Z,6.00
2023-04-12T10:13:45.451Z,5.70
2023-04-12T10:16:16.886Z,5.20
2023-04-12T10:21:17.379Z,6.50
2023-04-12T10:23:47.478Z,6.20
2023-04-12T10:26:17.369Z,6.90
2023-04-12T10:28:51.459Z,6.60
2023-04-12T10:32:16.961Z,8.00
2023-04-12T10:34:56.776Z,5.70
2023-04-12T10:38:02.216Z,4.90
2023-04-12T10:40:34.450Z,9.00
2023-04-12T10:45:55.788Z,8.10
2023-04-12T10:48:52.885Z,6.30
2023-04-12T10:51:28.376Z,7.60
2023-04-12T10:54:08.946Z,7.70
2023-04-12T10:56:52.080Z,6.40
2023-04-12T10:59:59.651Z,5.00
2023-04-12T11:02:29.170Z,9.90
2023-04-12T11:05:12.921Z,7.50
2023-04-12T11:07:54.742Z,8.40
2023-04-12T11:10:47.072Z,14.90
2023-04-12T11:13:36.964Z,10.60
2023-04-12T11:16:08.116Z,8.10
2023-04-12T11:18:40.031Z,7.90
2023-04-12T11:21:19.527Z,14.20
2023-04-12T11:23:49.800Z,10.60
2023-04-12T11:26:22.405Z,5.40
2023-04-12T11:28:59.629Z,6.40
2023-04-12T11:31:31.714Z,6.10
2023-04-12T11:34:13.866Z,6.00
2023-04-12T11:36:58.283Z,9.70
2023-04-12T11:39:34.938Z,5.90
2023-04-12T11:42:29.830Z,7.60
2023-04-12T11:45:15.843Z,5.10
2023-04-12T11:47:55.192Z,4.10
2023-04-12T11:50:32.784Z,4.50
2023-04-12T11:53:13.871Z,5.80
2023-04-12T11:55:59.089Z,5.70
2023-04-12T11:58:42.294Z,4.10
2023-04-12T12:01:26.740Z,4.50
2023-04-12T12:04:03.034Z,5.40
2023-04-12T12:06:37.502Z,3.80
2023-04-12T12:09:20.316Z,4.80
2023-04-12T12:12:00.840Z,5.10
2023-04-12T12:14:40.279Z,6.10
2023-04-12T12:17:20.155Z,6.30
2023-04-12T12:19:53.295Z,7.10
2023-04-12T12:22:29.105Z,3.90
2023-04-12T12:26:14.203Z,4.20
2023-04-12T12:29:00.887Z,4.00
2023-04-12T12:31:31.635Z,4.30
2023-04-12T12:37:59.159Z,6.90
2023-04-12T12:40:33.031Z,5.40
2023-04-12T12:43:04.654Z,4.90
2023-04-12T12:48:19.363Z,12.20
2023-04-12T12:50:55.964Z,7.00
2023-04-12T12:53:31.857Z,9.50
2023-04-12T12:56:12.025Z,6.30
2023-04-12T12:58:42.806Z,6.60
2023-04-12T13:01:18.995Z,6.80
2023-04-12T13:04:06.797Z,7.80
2023-04-12T13:06:46.970Z,4.30
2023-04-12T13:09:22.556Z,3.90
2023-04-12T13:12:02.598Z,4.30
2023-04-12T13:14:36.046Z,4.40
2023-04-12T13:17:10.271Z,3.90
2023-04-12T13:19:52.159Z,13.00
2023-04-12T13:22:22.430Z,4.70
2023-04-12T13:24:59.031Z,4.00
2023-04-12T13:27:36.927Z,6.80
2023-04-12T13:30:28.862Z,5.80
2023-04-12T13:33:07.569Z,8.60
2023-04-12T13:35:41.070Z,4.80
2023-04-12T13:38:11.716Z,3.80
2023-04-12T13:40:43.842Z,5.40
2023-04-12T13:43:21.675Z,4.70
2023-04-12T13:46:00.045Z,5.40
2023-04-12T13:48:33.019Z,9.20
2023-04-12T13:51:05.680Z,5.40
2023-04-12T13:53:38.793Z,3.30
2023-04-12T13:56:09.615Z,4.50
2023-04-12T13:58:46.122Z,5.10
2023-04-12T14:01:23.885Z,5.40
2023-04-12T14:03:56.055Z,6.40
2023-04-12T14:06:30.454Z,8.50
2023-04-12T14:09:27.351Z,3.40
2023-04-12T14:12:48.428Z,4.40
2023-04-12T14:16:09.354Z,4.70
2023-04-12T14:18:47.145Z,5.90
2023-04-12T14:21:29.386Z,4.80
2023-04-12T14:24:11.955Z,7.70
2023-04-12T14:26:54.781Z,5.70
2023-04-12T14:29:29.408Z,3.20
2023-04-12T14:32:05.121Z,4.00
2023-04-12T14:34:59.589Z,5.00
2023-04-12T14:37:37.413Z,3.90
2023-04-12T14:40:10.758Z,5.00
2023-04-12T14:43:14.977Z,5.10
2023-04-12T14:46:30.172Z,3.70
2023-04-12T14:49:38.629Z,9.20
2023-04-12T14:52:41.692Z,3.50
2023-04-12T14:55:15.256Z,6.00
2023-04-12T14:57:48.167Z,5.70
2023-04-12T15:00:26.872Z,6.00
2023-04-12T15:03:01.134Z,4.30
2023-04-12T15:05:36.391Z,3.70
2023-04-12T15:08:07.617Z,3.70
2023-04-12T15:10:39.787Z,3.70
2023-04-12T15:13:14.541Z,8.10
2023-04-12T15:15:49.213Z,5.50
2023-04-12T15:21:06.140Z,3.90
2023-04-12T15:24:28.928Z,3.80
2023-04-12T15:27:48.551Z,7.10
2023-04-12T15:30:29.418Z,3.50
2023-04-12T15:35:44.537Z,4.00
2023-04-12T15:38:32.153Z,2.60
2023-04-12T15:41:07.428Z,3.10
2023-04-12T15:43:47.537Z,6.00
2023-04-12T15:49:26.720Z,5.00
2023-04-12T15:52:15.867Z,5.60
2023-04-12T15:54:51.688Z,3.30
2023-04-12T15:57:27.398Z,4.20
2023-04-12T16:00:38.708Z,3.40
2023-04-12T16:03:18.157Z,3.00
2023-04-12T16:05:57.679Z,5.80
2023-04-12T16:08:41.785Z,3.60
2023-04-12T16:11:28.213Z,3.50
2023-04-12T16:14:22.712Z,3.30
2023-04-12T16:17:03.156Z,3.80
2023-04-12T16:19:35.806Z,4.80
2023-04-12T16:22:23.448Z,6.00
2023-04-12T16:25:11.206Z,7.30
2023-04-12T16:27:45.500Z,7.20
2023-04-12T16:30:28.411Z,7.40
2023-04-12T16:33:04.094Z,5.60
2023-04-12T16:35:49.878Z,4.00
2023-04-12T16:38:37.245Z,4.40
2023-04-12T16:41:36.548Z,4.20
2023-04-12T16:44:21.927Z,5.20
2023-04-12T16:47:25.122Z,4.20
2023-04-12T16:50:14.704Z,10.10
2023-04-12T16:52:52.758Z,5.00
2023-04-12T16:55:25.622Z,5.60
2023-04-12T17:00:39.853Z,6.40
2023-04-12T17:03:26.126Z,5.40
2023-04-12T17:06:00.059Z,5.90
2023-04-12T17:08:45.862Z,6.10
2023-04-12T17:11:26.373Z,6.90
2023-04-12T17:14:01.083Z,6.50
2023-04-12T17:16:33.709Z,5.70
2023-04-12T17:19:03.305Z,7.90
2023-04-12T17:21:43.477Z,8.00
2023-04-12T17:24:12.741Z,7.80
2023-04-12T17:26:42.178Z,12.40
2023-04-12T17:29:14.895Z,17.70
2023-04-12T17:31:46.119Z,14.40
2023-04-12T17:34:15.979Z,18.00
2023-04-12T17:36:45.574Z,23.50
2023-04-12T17:39:15.568Z,22.50
2023-04-12T17:41:55.143Z,21.20
2023-04-12T17:44:29.223Z,17.90
2023-04-12T17:47:16.433Z,15.90
2023-04-12T17:50:12.197Z,11.90
2023-04-12T17:52:57.441Z,17.80
2023-04-12T17:55:38.829Z,18.70
2023-04-12T17:58:36.911Z,21.30
2023-04-12T18:01:16.586Z,30.70
2023-04-12T18:03:57.505Z,48.60
2023-04-12T18:06:48.518Z,162.50
2023-04-12T18:09:30.405Z,53.20
2023-04-12T18:12:04.816Z,54.60
2023-04-12T18:14:37.105Z,81.20
2023-04-12T18:17:16.111Z,42.80
2023-04-12T18:19:59.521Z,39.90
2023-04-12T18:22:34.932Z,44.40
2023-04-12T18:25:10.285Z,44.70
2023-04-12T18:27:40.710Z,44.60
2023-04-12T18:30:21.291Z,42.70
2023-04-12T18:33:03.544Z,42.80
2023-04-12T18:35:40.987Z,41.20
2023-04-12T18:38:53.064Z,39.50
2023-04-12T18:46:02.230Z,41.70
2023-04-12T18:50:01.093Z,47.70
2023-04-12T18:53:20.599Z,37.00
2023-04-12T18:56:11.131Z,37.00
2023-04-12T18:59:02.277Z,32.20
2023-04-12T19:07:15.943Z,32.10
2023-04-12T19:12:35.516Z,26.30
2023-04-12T19:18:47.864Z,31.60
2023-04-12T19:21:38.245Z,32.30
2023-04-12T19:24:44.713Z,32.30
2023-04-12T19:27:27.845Z,32.50
2023-04-12T19:30:17.010Z,42.00
2023-04-12T19:32:59.988Z,37.20
2023-04-12T19:36:07.156Z,45.00
2023-04-12T19:38:44.717Z,42.90
2023-04-12T19:41:35.094Z,43.80
2023-04-12T19:44:19.330Z,45.40
2023-04-12T19:47:20.123Z,42.90
2023-04-12T19:50:32.087Z,40.00
2023-04-12T19:57:00.176Z,34.60
2023-04-12T19:59:49.255Z,35.00
2023-04-12T20:02:24.589Z,32.80
2023-04-12T20:05:04.467Z,32.70
2023-04-12T20:07:40.982Z,33.20
2023-04-12T20:10:15.788Z,32.20
2023-04-12T20:12:51.400Z,33.90
2023-04-12T20:15:31.890Z,33.40
2023-04-12T20:18:05.419Z,30.60
2023-04-12T20:21:06.852Z,31.20
2023-04-12T20:23:52.941Z,30.00
2023-04-12T20:27:14.001Z,28.40
2023-04-12T20:30:42.069Z,37.60
2023-04-12T20:33:13.993Z,31.50
2023-04-12T20:39:18.828Z,27.40
2023-04-12T20:41:58.471Z,29.70
2023-04-12T20:44:29.022Z,30.20
2023-04-12T20:47:35.939Z,30.20
2023-04-12T20:50:19.317Z,30.30
2023-04-12T20:53:08.317Z,31.90
2023-04-12T20:55:58.733Z,32.00
2023-04-12T20:58:50.741Z,31.30
2023-04-12T21:01:26.729Z,33.00
2023-04-12T21:04:18.580Z,30.50
2023-04-12T21:07:47.915Z,30.30
2023-04-12T21:10:31.407Z,37.30
2023-04-12T21:13:11.504Z,32.30
2023-04-12T21:15:46.307Z,28.60
2023-04-12T21:18:23.891Z,30.70
2023-04-12T21:20:55.861Z,30.40
2023-04-12T21:23:33.704Z,33.00
2023-04-12T21:26:09.168Z,29.20
2023-04-12T21:28:41.735Z,28.10
2023-04-12T21:31:15.304Z,30.20
2023-04-12T21:33:50.566Z,27.50
2023-04-12T21:36:21.475Z,30.80
2023-04-12T21:39:08.308Z,28.80
2023-04-12T21:41:40.273Z,28.70
2023-04-12T21:44:12.919Z,25.50
2023-04-12T21:46:45.701Z,26.50
2023-04-12T21:49:16.128Z,27.90
2023-04-12T21:51:47.338Z,25.90
2023-04-12T21:54:17.154Z,28.20
2023-04-12T21:56:50.225Z,28.80
2023-04-12T21:59:25.077Z,29.40
2023-04-12T22:01:58.380Z,30.80
2023-04-12T22:04:28.371Z,35.20
2023-04-12T22:06:58.350Z,32.20
2023-04-12T22:09:36.458Z,31.30
2023-04-12T22:12:08.880Z,31.80
2023-04-12T22:14:47.221Z,28.80
2023-04-12T22:17:25.714Z,27.60
2023-04-12T22:19:58.323Z,29.00
2023-04-12T22:22:29.412Z,27.40
2023-04-12T22:25:00.546Z,28.90
2023-04-12T22:27:36.450Z,31.20
2023-04-12T22:30:11.839Z,29.50
2023-04-12T22:32:44.376Z,35.10
2023-04-12T22:35:18.274Z,28.90
2023-04-12T22:37:53.417Z,35.00
2023-04-12T22:40:25.913Z,33.40
2023-04-12T22:42:58.793Z,31.50
2023-04-12T22:45:34.985Z,30.20
2023-04-12T22:48:15.056Z,30.70
2023-04-12T22:50:45.520Z,36.80
2023-04-12T22:53:19.236Z,34.30
2023-04-12T22:55:52.832Z,35.10
2023-04-12T22:58:33.826Z,36.30
2023-04-12T23:01:07.951Z,37.20
2023-04-12T23:03:43.967Z,29.70
2023-04-12T23:06:22.300Z,31.30
2023-04-12T23:09:00.393Z,32.80
2023-04-12T23:11:32.642Z,30.60
2023-04-12T23:14:07.288Z,32.00
2023-04-12T23:16:46.205Z,31.40
2023-04-12T23:22:04.892Z,34.20
2023-04-12T23:24:53.048Z,31.50
2023-04-12T23:27:54.032Z,28.10
2023-04-12T23:30:38.028Z,31.00
2023-04-12T23:33:11.505Z,33.00
2023-04-12T23:35:46.108Z,31.30
2023-04-12T23:38:27.468Z,34.90
2023-04-12T23:40:57.477Z,36.60
2023-04-12T23:43:29.601Z,29.80
2023-04-12T23:46:05.310Z,31.30
2023-04-12T23:48:39.153Z,31.40
2023-04-12T23:51:17.182Z,28.50
2023-04-12T23:53:50.418Z,30.00
2023-04-12T23:56:28.335Z,27.60
2023-04-12T23:59:00.796Z,28.90
